Back to top

Sheridan, WY weather

Sheridan County Airport, Sheridan, WY: 11/13/2019 18:53
Visibility10 statute mileslots of clouds
View 7-Day Forecast
Area Summary
Sky/CloudsBroken at 8000ft, Solid Overcast at 9000ft
Weather [last 24 hours]None [rain ended 02:20; unknown precip began 03:37; unknown precip ended 05:11 began 05:42 ended 05:51; unknown precip began 06:12; unknown precip began 06:12 ended 06:10 ]
Pressure30.14 in.Hg (1021 hPa)
Dew Point32 °F (0 °C)
Relative Humidity81.8 %
Last 24-Hour Precip.0.05 in. (1.27 mm)
Reading TimePrecipitation
6-hr ending 11/13@10:53Trace
6-hr ending 11/13@04:530.05 in. (1.27 mm)
24-hr ending 11/13@04:530.05 in. (1.27 mm)
Temperature37 °F (2.8 °C)red thermometer
Reading TimeMinimum to Maximum Temperature
6-hr ending 11/13@16:5337.9 °F to 46.9 °F (3.3 °C to 8.3 °C)
6-hr ending 11/13@10:5335.1 °F to 44.1 °F (1.7 °C to 6.7 °C)
6-hr ending 11/13@04:5335.1 °F to 42.1 °F (1.7 °C to 5.6 °C)
6-hr ending 11/12@22:5335.1 °F to 43 °F (1.7 °C to 6.1 °C)
24-hr ending 11/12@23:53-2 °F to 44.1 °F (-18.9 °C to 6.7 °C)
Wind0 MPH (0 KT) green arrow pointing at 0 degrees
Wind FromNorth (000 Degrees)
Twilight Begins06:30Sunshine Yesterday
Sunrise07:01N/A
Sunset16:43
Twilight Ends17:14
METARKSHR 140153Z AUTO 00000KT 10SM BKN080 OVC090 03/00 A3014 RMK AO2 SLP227 T00280000
Tags: